createdAt,value
2023-12-30T00:00:31.125Z,30.86
2023-12-30T00:05:32.534Z,30.62
2023-12-30T00:10:33.912Z,30.76
2023-12-30T00:15:35.248Z,30.96
2023-12-30T00:20:36.553Z,30.94
2023-12-30T00:25:37.968Z,30.85
2023-12-30T00:30:39.434Z,30.69
2023-12-30T00:35:41.092Z,30.73
2023-12-30T00:40:42.930Z,30.77
2023-12-30T00:45:44.217Z,30.60
2023-12-30T00:50:49.883Z,30.45
2023-12-30T00:55:51.158Z,30.60
2023-12-30T01:00:52.578Z,30.81
2023-12-30T01:05:53.905Z,30.39
2023-12-30T01:10:55.595Z,30.56
2023-12-30T01:15:56.957Z,30.66
2023-12-30T01:20:58.271Z,30.56
2023-12-30T01:25:59.743Z,30.57
2023-12-30T01:31:01.125Z,30.47
2023-12-30T01:36:02.576Z,30.56
2023-12-30T01:41:03.886Z,30.73
2023-12-30T01:46:05.936Z,30.46
2023-12-30T01:51:23.103Z,30.61
2023-12-30T01:56:26.638Z,30.79
2023-12-30T02:01:28.020Z,30.92
2023-12-30T02:06:29.416Z,30.90
2023-12-30T02:11:30.713Z,30.97
2023-12-30T02:16:32.083Z,31.05
2023-12-30T02:21:33.474Z,31.15
2023-12-30T02:26:34.897Z,31.14
2023-12-30T02:31:36.648Z,31.26
2023-12-30T02:36:38.008Z,30.96
2023-12-30T02:41:39.349Z,31.26
2023-12-30T02:46:40.659Z,31.47
2023-12-30T02:51:41.958Z,31.61
2023-12-30T02:56:43.275Z,31.29
2023-12-30T03:01:44.734Z,31.59
2023-12-30T03:06:46.566Z,31.98
2023-12-30T03:11:48.130Z,32.03
2023-12-30T03:16:49.438Z,31.73
2023-12-30T03:21:50.763Z,31.92
2023-12-30T03:26:52.273Z,32.10
2023-12-30T03:31:53.744Z,32.12
2023-12-30T03:36:55.339Z,31.98
2023-12-30T03:41:57.623Z,31.72
2023-12-30T03:46:58.936Z,32.22
2023-12-30T03:52:00.305Z,31.77
2023-12-30T03:57:01.690Z,31.69
2023-12-30T04:02:03.081Z,31.69
2023-12-30T04:07:04.453Z,31.95
2023-12-30T04:12:05.887Z,31.85
2023-12-30T04:17:07.192Z,31.79
2023-12-30T04:22:08.589Z,32.09
2023-12-30T04:27:10.338Z,32.57
2023-12-30T04:32:12.112Z,32.53
2023-12-30T04:37:14.277Z,32.48
2023-12-30T04:42:16.149Z,33.03
2023-12-30T04:47:17.438Z,33.31
2023-12-30T04:52:18.776Z,33.07
2023-12-30T04:57:20.126Z,33.13
2023-12-30T05:02:21.408Z,33.62
2023-12-30T05:07:22.736Z,33.44
2023-12-30T05:12:24.140Z,33.03
2023-12-30T05:17:26.703Z,32.81
2023-12-30T05:22:28.077Z,32.85
2023-12-30T05:27:29.378Z,32.79
2023-12-30T05:32:30.750Z,32.89
2023-12-30T05:37:32.300Z,32.79
2023-12-30T05:42:33.688Z,32.25
2023-12-30T05:47:35.049Z,31.99
2023-12-30T05:52:36.467Z,31.69
2023-12-30T05:57:37.892Z,31.53
2023-12-30T06:02:39.232Z,31.17
2023-12-30T06:07:40.684Z,31.50
2023-12-30T06:12:42.046Z,31.38
2023-12-30T06:17:43.435Z,31.03
2023-12-30T06:22:44.772Z,31.06
2023-12-30T06:27:46.086Z,31.19
2023-12-30T06:32:47.415Z,31.28
2023-12-30T06:37:48.992Z,31.08
2023-12-30T06:42:50.468Z,31.24
2023-12-30T06:47:51.820Z,31.86
2023-12-30T06:52:56.814Z,31.68
2023-12-30T06:57:58.145Z,31.38
2023-12-30T07:02:59.936Z,31.49
2023-12-30T07:08:01.418Z,31.89
2023-12-30T07:13:03.235Z,31.55
2023-12-30T07:18:04.975Z,31.44
2023-12-30T07:23:07.577Z,31.75
2023-12-30T07:28:08.968Z,31.44
2023-12-30T07:33:10.344Z,31.24
2023-12-30T07:38:12.022Z,31.29
2023-12-30T07:43:13.353Z,31.13
2023-12-30T07:48:14.750Z,31.23
2023-12-30T07:53:16.105Z,31.15
2023-12-30T07:58:17.432Z,30.97
2023-12-30T08:03:18.788Z,31.11
2023-12-30T08:08:20.771Z,31.27
2023-12-30T08:13:22.128Z,31.19
2023-12-30T08:18:23.765Z,30.92
2023-12-30T08:23:25.161Z,31.03
2023-12-30T08:28:26.508Z,31.04
2023-12-30T08:33:27.875Z,31.10
2023-12-30T08:38:32.644Z,31.08
2023-12-30T08:43:34.027Z,31.68
2023-12-30T08:48:35.451Z,31.61
2023-12-30T08:53:36.858Z,31.48
2023-12-30T08:58:38.185Z,31.81
2023-12-30T09:03:39.558Z,32.12
2023-12-30T09:08:42.379Z,31.71
2023-12-30T09:13:43.789Z,31.77
2023-12-30T09:18:45.226Z,31.77
2023-12-30T09:23:46.555Z,31.55
2023-12-30T09:28:48.721Z,31.17
2023-12-30T09:33:50.321Z,31.04
2023-12-30T09:38:53.455Z,31.23
2023-12-30T09:43:54.803Z,31.07
2023-12-30T09:48:56.366Z,30.93
2023-12-30T09:53:57.982Z,30.92
2023-12-30T09:58:59.260Z,31.28
2023-12-30T10:04:00.938Z,31.21
2023-12-30T10:09:02.249Z,31.04
2023-12-30T10:14:03.570Z,31.25
2023-12-30T10:19:11.221Z,31.33
2023-12-30T10:24:13.069Z,31.00
2023-12-30T10:29:14.364Z,31.18
2023-12-30T10:34:20.469Z,31.37
2023-12-30T10:39:24.501Z,31.41
2023-12-30T10:44:25.800Z,31.12
2023-12-30T10:49:27.204Z,30.96
2023-12-30T10:54:32.092Z,31.04
2023-12-30T10:59:33.403Z,31.16
2023-12-30T11:04:34.778Z,30.73
2023-12-30T11:09:36.846Z,30.43
2023-12-30T11:14:38.160Z,30.64
2023-12-30T11:19:40.310Z,30.58
2023-12-30T11:24:43.555Z,29.94
2023-12-30T11:29:44.887Z,29.48
2023-12-30T11:34:49.601Z,29.40
2023-12-30T11:39:51.364Z,29.26
2023-12-30T11:44:53.906Z,29.18
2023-12-30T11:50:03.907Z,29.26
2023-12-30T11:55:05.430Z,29.40
2023-12-30T12:00:08.771Z,29.25
2023-12-30T12:05:10.308Z,29.17
2023-12-30T12:10:11.678Z,29.35
2023-12-30T12:15:13.191Z,29.35
2023-12-30T12:20:14.556Z,29.50
2023-12-30T12:25:15.895Z,29.41
2023-12-30T12:30:17.341Z,29.92
2023-12-30T12:35:18.666Z,30.58
2023-12-30T12:40:20.004Z,30.50
2023-12-30T12:45:21.301Z,30.54
2023-12-30T12:50:22.648Z,30.99
2023-12-30T12:55:24.013Z,30.88
2023-12-30T13:00:26.543Z,30.70
2023-12-30T13:05:27.909Z,30.52
2023-12-30T13:10:47.226Z,30.73
2023-12-30T13:15:49.003Z,30.66
2023-12-30T13:20:50.941Z,30.41
2023-12-30T13:25:52.331Z,30.53
2023-12-30T13:30:53.882Z,30.72
2023-12-30T13:35:55.241Z,30.71
2023-12-30T13:41:00.976Z,30.60
2023-12-30T13:46:34.081Z,30.45
2023-12-30T13:51:50.293Z,30.98
2023-12-30T13:57:00.957Z,30.77
2023-12-30T14:02:02.576Z,30.62
2023-12-30T14:07:07.380Z,30.36
2023-12-30T14:12:11.406Z,30.72
2023-12-30T14:17:14.846Z,30.81
2023-12-30T14:22:17.114Z,30.67
2023-12-30T14:27:18.456Z,30.49
2023-12-30T14:32:20.083Z,30.63
2023-12-30T14:37:21.393Z,30.87
2023-12-30T14:42:23.082Z,30.72
2023-12-30T14:47:24.418Z,30.75
2023-12-30T14:52:25.799Z,30.86
2023-12-30T14:57:28.913Z,31.19
2023-12-30T15:02:30.327Z,30.81
2023-12-30T15:07:31.682Z,30.91
2023-12-30T15:12:33.008Z,31.19
2023-12-30T15:17:34.406Z,31.26
2023-12-30T15:22:36.302Z,31.16
2023-12-30T15:27:37.731Z,31.14
2023-12-30T15:32:40.303Z,31.43
2023-12-30T15:37:44.073Z,31.24
2023-12-30T15:42:46.410Z,31.28
2023-12-30T15:47:49.114Z,31.38
2023-12-30T15:52:50.561Z,31.61
2023-12-30T15:57:51.975Z,31.64
2023-12-30T16:02:53.328Z,31.55
2023-12-30T16:07:54.677Z,31.62
2023-12-30T16:12:55.968Z,31.79
2023-12-30T16:17:57.284Z,31.70
2023-12-30T16:23:03.969Z,31.65
2023-12-30T16:28:05.524Z,31.62
2023-12-30T16:33:07.081Z,31.64
2023-12-30T16:38:08.532Z,31.58
2023-12-30T16:43:09.826Z,31.45
2023-12-30T16:48:11.638Z,31.68
2023-12-30T16:53:13.207Z,31.76
2023-12-30T16:58:14.529Z,31.87
2023-12-30T17:03:15.907Z,31.42
2023-12-30T17:08:17.261Z,31.19
2023-12-30T17:13:19.152Z,31.38
2023-12-30T17:18:22.699Z,31.31
2023-12-30T17:23:24.540Z,31.19
2023-12-30T17:28:25.838Z,31.28
2023-12-30T17:33:27.161Z,31.10
2023-12-30T17:38:28.581Z,31.60
2023-12-30T17:43:30.287Z,31.07
2023-12-30T17:48:31.654Z,30.96
2023-12-30T17:53:32.985Z,31.15
2023-12-30T17:58:34.758Z,31.45
2023-12-30T18:03:36.234Z,31.24
2023-12-30T18:08:37.606Z,31.18
2023-12-30T18:13:39.044Z,31.17
2023-12-30T18:18:40.606Z,31.50
2023-12-30T18:23:41.927Z,31.31
2023-12-30T18:28:43.328Z,31.19
2023-12-30T18:33:44.744Z,31.30
2023-12-30T18:38:46.153Z,31.16
2023-12-30T18:43:47.579Z,31.15
2023-12-30T18:48:49.395Z,31.27
2023-12-30T18:53:52.033Z,31.37
2023-12-30T18:58:54.894Z,31.17
2023-12-30T19:03:57.836Z,31.08
2023-12-30T19:08:59.228Z,31.50
2023-12-30T19:14:00.656Z,31.25
2023-12-30T19:19:02.107Z,30.97
2023-12-30T19:24:05.244Z,31.09
2023-12-30T19:29:06.545Z,31.17
2023-12-30T19:34:08.032Z,31.24
2023-12-30T19:39:09.750Z,31.05
2023-12-30T19:44:11.881Z,31.04
2023-12-30T19:49:14.620Z,31.06
2023-12-30T19:54:16.084Z,31.18
2023-12-30T19:59:17.617Z,31.00
2023-12-30T20:04:19.075Z,31.04
2023-12-30T20:09:20.740Z,31.00
2023-12-30T20:14:22.079Z,31.27
2023-12-30T20:19:23.432Z,30.68
2023-12-30T20:24:27.245Z,30.95
2023-12-30T20:29:28.667Z,30.96
2023-12-30T20:34:30.033Z,30.90
2023-12-30T20:39:32.279Z,30.80
2023-12-30T20:44:33.559Z,31.06
2023-12-30T20:49:35.100Z,31.06
2023-12-30T20:54:39.681Z,30.75
2023-12-30T20:59:41.676Z,30.66
2023-12-30T21:04:43.093Z,30.95
2023-12-30T21:09:44.427Z,30.85
2023-12-30T21:14:45.713Z,30.78
2023-12-30T21:19:49.396Z,30.67
2023-12-30T21:24:51.419Z,31.00
2023-12-30T21:29:52.733Z,30.84
2023-12-30T21:34:54.232Z,30.69
2023-12-30T21:39:55.594Z,30.67
2023-12-30T21:44:56.981Z,30.72
2023-12-30T21:49:58.341Z,30.37
2023-12-30T21:54:59.743Z,30.36
2023-12-30T22:00:01.285Z,30.66
2023-12-30T22:05:03.174Z,30.49
2023-12-30T22:10:04.761Z,30.12
2023-12-30T22:15:06.957Z,30.18
2023-12-30T22:20:08.397Z,30.45
2023-12-30T22:25:09.758Z,30.33
2023-12-30T22:30:11.198Z,30.09
2023-12-30T22:35:13.934Z,30.10
2023-12-30T22:40:15.252Z,30.14
2023-12-30T22:45:17.170Z,30.27
2023-12-30T22:50:18.514Z,30.02
2023-12-30T22:55:19.938Z,29.94
2023-12-30T23:00:34.445Z,29.96
2023-12-30T23:05:35.819Z,29.91
2023-12-30T23:10:37.145Z,29.79
2023-12-30T23:15:38.549Z,29.64
2023-12-30T23:20:39.853Z,29.94
2023-12-30T23:25:41.242Z,29.89
2023-12-30T23:30:42.709Z,29.91
2023-12-30T23:35:44.018Z,29.49
2023-12-30T23:40:45.569Z,29.77
2023-12-30T23:45:46.897Z,29.72
2023-12-30T23:50:49.426Z,29.56
2023-12-30T23:55:50.856Z,29.51
